sensor_id;sensor_type;location;lat;lon;timestamp;P1;durP1;ratioP1;P2;durP2;ratioP2
59336;SDS011;45115;52.002;4.686;2022-10-04T00:00:59;17.25;;;9.45;;
59336;SDS011;45115;52.002;4.686;2022-10-04T00:03:31;16.20;;;8.82;;
59336;SDS011;45115;52.002;4.686;2022-10-04T00:06:01;17.38;;;9.98;;
59336;SDS011;45115;52.002;4.686;2022-10-04T00:08:32;21.08;;;10.25;;
59336;SDS011;45115;52.002;4.686;2022-10-04T00:11:05;17.02;;;10.00;;
59336;SDS011;45115;52.002;4.686;2022-10-04T00:13:38;17.38;;;10.15;;
59336;SDS011;45115;52.002;4.686;2022-10-04T00:16:06;16.35;;;9.65;;
59336;SDS011;45115;52.002;4.686;2022-10-04T00:18:44;16.23;;;9.43;;
59336;SDS011;45115;52.002;4.686;2022-10-04T00:21:11;16.30;;;9.70;;
59336;SDS011;45115;52.002;4.686;2022-10-04T00:23:43;17.05;;;9.07;;
59336;SDS011;45115;52.002;4.686;2022-10-04T00:29:22;18.50;;;10.05;;
59336;SDS011;45115;52.002;4.686;2022-10-04T00:34:53;16.27;;;9.23;;
59336;SDS011;45115;52.002;4.686;2022-10-04T00:37:20;14.88;;;8.60;;
59336;SDS011;45115;52.002;4.686;2022-10-04T00:40:01;17.05;;;10.10;;
59336;SDS011;45115;52.002;4.686;2022-10-04T00:42:46;18.52;;;9.95;;
59336;SDS011;45115;52.002;4.686;2022-10-04T00:45:25;15.18;;;8.82;;
59336;SDS011;45115;52.002;4.686;2022-10-04T00:47:57;18.10;;;10.20;;
59336;SDS011;45115;52.002;4.686;2022-10-04T00:50:31;16.45;;;9.68;;
59336;SDS011;45115;52.002;4.686;2022-10-04T00:53:01;16.40;;;8.98;;
59336;SDS011;45115;52.002;4.686;2022-10-04T00:55:40;18.45;;;9.32;;
59336;SDS011;45115;52.002;4.686;2022-10-04T00:58:13;14.55;;;8.43;;
59336;SDS011;45115;52.002;4.686;2022-10-04T01:00:44;16.05;;;8.88;;
59336;SDS011;45115;52.002;4.686;2022-10-04T01:03:14;16.10;;;8.98;;
59336;SDS011;45115;52.002;4.686;2022-10-04T01:05:46;16.77;;;9.52;;
59336;SDS011;45115;52.002;4.686;2022-10-04T01:08:21;16.55;;;9.25;;
59336;SDS011;45115;52.002;4.686;2022-10-04T01:10:54;15.55;;;10.07;;
59336;SDS011;45115;52.002;4.686;2022-10-04T01:13:26;19.75;;;11.18;;
59336;SDS011;45115;52.002;4.686;2022-10-04T01:15:58;21.42;;;11.70;;
59336;SDS011;45115;52.002;4.686;2022-10-04T01:18:30;18.35;;;10.55;;
59336;SDS011;45115;52.002;4.686;2022-10-04T01:20:59;18.95;;;11.00;;
59336;SDS011;45115;52.002;4.686;2022-10-04T01:23:35;20.42;;;10.88;;
59336;SDS011;45115;52.002;4.686;2022-10-04T01:26:05;18.85;;;10.68;;
59336;SDS011;45115;52.002;4.686;2022-10-04T01:29:01;19.08;;;11.27;;
59336;SDS011;45115;52.002;4.686;2022-10-04T01:31:31;23.08;;;10.52;;
59336;SDS011;45115;52.002;4.686;2022-10-04T01:33:59;21.80;;;13.07;;
59336;SDS011;45115;52.002;4.686;2022-10-04T01:36:27;20.77;;;10.77;;
59336;SDS011;45115;52.002;4.686;2022-10-04T01:38:56;22.42;;;13.02;;
59336;SDS011;45115;52.002;4.686;2022-10-04T01:41:27;23.55;;;12.73;;
59336;SDS011;45115;52.002;4.686;2022-10-04T01:46:55;19.52;;;11.75;;
59336;SDS011;45115;52.002;4.686;2022-10-04T01:49:28;23.48;;;12.05;;
59336;SDS011;45115;52.002;4.686;2022-10-04T01:51:58;23.58;;;13.05;;
59336;SDS011;45115;52.002;4.686;2022-10-04T01:54:34;24.75;;;13.27;;
59336;SDS011;45115;52.002;4.686;2022-10-04T01:57:06;24.55;;;13.18;;
59336;SDS011;45115;52.002;4.686;2022-10-04T01:59:40;24.05;;;13.02;;
59336;SDS011;45115;52.002;4.686;2022-10-04T02:02:16;24.98;;;13.82;;
59336;SDS011;45115;52.002;4.686;2022-10-04T02:04:48;25.73;;;12.57;;
59336;SDS011;45115;52.002;4.686;2022-10-04T02:07:17;21.70;;;13.25;;
59336;SDS011;45115;52.002;4.686;2022-10-04T02:09:46;22.50;;;13.52;;
59336;SDS011;45115;52.002;4.686;2022-10-04T02:12:19;23.00;;;13.43;;
59336;SDS011;45115;52.002;4.686;2022-10-04T02:14:46;24.60;;;13.65;;
59336;SDS011;45115;52.002;4.686;2022-10-04T02:17:18;24.33;;;14.85;;
59336;SDS011;45115;52.002;4.686;2022-10-04T02:19:47;25.87;;;15.07;;
59336;SDS011;45115;52.002;4.686;2022-10-04T02:22:14;28.50;;;15.82;;
59336;SDS011;45115;52.002;4.686;2022-10-04T02:24:43;27.77;;;14.63;;
59336;SDS011;45115;52.002;4.686;2022-10-04T02:27:13;21.70;;;13.63;;
59336;SDS011;45115;52.002;4.686;2022-10-04T02:29:40;25.23;;;15.00;;
59336;SDS011;45115;52.002;4.686;2022-10-04T02:32:07;27.10;;;15.82;;
59336;SDS011;45115;52.002;4.686;2022-10-04T02:34:52;26.75;;;14.45;;
59336;SDS011;45115;52.002;4.686;2022-10-04T02:37:21;28.10;;;15.40;;
59336;SDS011;45115;52.002;4.686;2022-10-04T02:39:49;26.30;;;14.50;;
59336;SDS011;45115;52.002;4.686;2022-10-04T02:42:21;28.48;;;15.60;;
59336;SDS011;45115;52.002;4.686;2022-10-04T02:44:57;24.08;;;14.70;;
59336;SDS011;45115;52.002;4.686;2022-10-04T02:47:32;24.00;;;14.13;;
59336;SDS011;45115;52.002;4.686;2022-10-04T02:50:07;25.67;;;14.32;;
59336;SDS011;45115;52.002;4.686;2022-10-04T02:52:44;26.98;;;15.70;;
59336;SDS011;45115;52.002;4.686;2022-10-04T02:55:18;26.02;;;14.73;;
59336;SDS011;45115;52.002;4.686;2022-10-04T03:00:17;26.13;;;14.35;;
59336;SDS011;45115;52.002;4.686;2022-10-04T03:05:54;29.13;;;16.02;;
59336;SDS011;45115;52.002;4.686;2022-10-04T03:08:25;26.90;;;16.10;;
59336;SDS011;45115;52.002;4.686;2022-10-04T03:10:53;26.98;;;14.63;;
59336;SDS011;45115;52.002;4.686;2022-10-04T03:13:22;26.13;;;15.05;;
59336;SDS011;45115;52.002;4.686;2022-10-04T03:15:48;21.80;;;14.10;;
59336;SDS011;45115;52.002;4.686;2022-10-04T03:18:15;24.75;;;14.15;;
59336;SDS011;45115;52.002;4.686;2022-10-04T03:20:44;28.55;;;14.18;;
59336;SDS011;45115;52.002;4.686;2022-10-04T03:23:12;25.80;;;15.63;;
59336;SDS011;45115;52.002;4.686;2022-10-04T03:25:44;27.20;;;16.15;;
59336;SDS011;45115;52.002;4.686;2022-10-04T03:28:17;23.88;;;14.77;;
59336;SDS011;45115;52.002;4.686;2022-10-04T03:30:45;26.40;;;15.02;;
59336;SDS011;45115;52.002;4.686;2022-10-04T03:33:20;25.63;;;15.23;;
59336;SDS011;45115;52.002;4.686;2022-10-04T03:35:49;29.23;;;15.00;;
59336;SDS011;45115;52.002;4.686;2022-10-04T03:38:19;24.83;;;14.18;;
59336;SDS011;45115;52.002;4.686;2022-10-04T03:40:52;23.95;;;14.77;;
59336;SDS011;45115;52.002;4.686;2022-10-04T03:43:21;25.88;;;15.15;;
59336;SDS011;45115;52.002;4.686;2022-10-04T03:45:52;24.98;;;14.88;;
59336;SDS011;45115;52.002;4.686;2022-10-04T03:48:28;29.48;;;16.63;;
59336;SDS011;45115;52.002;4.686;2022-10-04T03:50:57;33.03;;;17.73;;
59336;SDS011;45115;52.002;4.686;2022-10-04T03:53:29;32.38;;;19.08;;
59336;SDS011;45115;52.002;4.686;2022-10-04T03:55:59;30.90;;;16.45;;
59336;SDS011;45115;52.002;4.686;2022-10-04T03:58:28;31.10;;;16.25;;
59336;SDS011;45115;52.002;4.686;2022-10-04T04:01:08;27.98;;;16.70;;
59336;SDS011;45115;52.002;4.686;2022-10-04T04:03:45;27.60;;;16.30;;
59336;SDS011;45115;52.002;4.686;2022-10-04T04:06:19;31.70;;;17.98;;
59336;SDS011;45115;52.002;4.686;2022-10-04T04:08:48;30.15;;;17.52;;
59336;SDS011;45115;52.002;4.686;2022-10-04T04:11:20;29.45;;;17.58;;
59336;SDS011;45115;52.002;4.686;2022-10-04T04:13:50;34.92;;;19.52;;
59336;SDS011;45115;52.002;4.686;2022-10-04T04:16:25;31.88;;;19.05;;
59336;SDS011;45115;52.002;4.686;2022-10-04T04:18:53;31.45;;;19.45;;
59336;SDS011;45115;52.002;4.686;2022-10-04T04:21:23;29.95;;;18.27;;
59336;SDS011;45115;52.002;4.686;2022-10-04T04:23:52;34.53;;;19.55;;
59336;SDS011;45115;52.002;4.686;2022-10-04T04:26:24;34.47;;;19.00;;
59336;SDS011;45115;52.002;4.686;2022-10-04T04:28:57;33.40;;;17.90;;
59336;SDS011;45115;52.002;4.686;2022-10-04T04:31:34;29.45;;;18.23;;
59336;SDS011;45115;52.002;4.686;2022-10-04T04:34:14;30.33;;;18.45;;
59336;SDS011;45115;52.002;4.686;2022-10-04T04:36:43;35.38;;;19.48;;
59336;SDS011;45115;52.002;4.686;2022-10-04T04:39:13;30.60;;;18.00;;
59336;SDS011;45115;52.002;4.686;2022-10-04T04:42:02;25.63;;;16.40;;
59336;SDS011;45115;52.002;4.686;2022-10-04T04:44:35;26.00;;;15.50;;
59336;SDS011;45115;52.002;4.686;2022-10-04T04:47:06;30.63;;;17.67;;
59336;SDS011;45115;52.002;4.686;2022-10-04T04:49:36;25.85;;;15.85;;
59336;SDS011;45115;52.002;4.686;2022-10-04T04:52:05;37.40;;;22.57;;
59336;SDS011;45115;52.002;4.686;2022-10-04T04:54:42;30.23;;;18.52;;
59336;SDS011;45115;52.002;4.686;2022-10-04T04:57:13;28.50;;;18.30;;
59336;SDS011;45115;52.002;4.686;2022-10-04T04:59:42;27.42;;;17.20;;
59336;SDS011;45115;52.002;4.686;2022-10-04T05:05:14;28.05;;;15.95;;
59336;SDS011;45115;52.002;4.686;2022-10-04T05:07:42;25.33;;;16.13;;
59336;SDS011;45115;52.002;4.686;2022-10-04T05:10:18;26.52;;;18.13;;
59336;SDS011;45115;52.002;4.686;2022-10-04T05:12:46;29.30;;;17.63;;
59336;SDS011;45115;52.002;4.686;2022-10-04T05:15:14;33.00;;;18.08;;
59336;SDS011;45115;52.002;4.686;2022-10-04T05:17:42;31.88;;;18.27;;
59336;SDS011;45115;52.002;4.686;2022-10-04T05:20:10;33.40;;;18.52;;
59336;SDS011;45115;52.002;4.686;2022-10-04T05:22:39;29.70;;;18.20;;
59336;SDS011;45115;52.002;4.686;2022-10-04T05:25:11;31.02;;;18.27;;
59336;SDS011;45115;52.002;4.686;2022-10-04T05:27:41;33.03;;;19.20;;
59336;SDS011;45115;52.002;4.686;2022-10-04T05:30:12;39.78;;;20.05;;
59336;SDS011;45115;52.002;4.686;2022-10-04T05:32:54;29.58;;;18.55;;
59336;SDS011;45115;52.002;4.686;2022-10-04T05:35:26;32.35;;;17.95;;
59336;SDS011;45115;52.002;4.686;2022-10-04T05:37:56;36.30;;;19.55;;
59336;SDS011;45115;52.002;4.686;2022-10-04T05:40:31;31.30;;;18.65;;
59336;SDS011;45115;52.002;4.686;2022-10-04T05:43:20;31.25;;;18.63;;
59336;SDS011;45115;52.002;4.686;2022-10-04T05:46:05;31.77;;;17.27;;
59336;SDS011;45115;52.002;4.686;2022-10-04T05:48:41;26.90;;;17.40;;
59336;SDS011;45115;52.002;4.686;2022-10-04T05:51:13;33.78;;;18.90;;
59336;SDS011;45115;52.002;4.686;2022-10-04T05:53:44;33.35;;;18.60;;
59336;SDS011;45115;52.002;4.686;2022-10-04T05:56:18;28.75;;;17.88;;
59336;SDS011;45115;52.002;4.686;2022-10-04T05:59:00;32.92;;;18.60;;
59336;SDS011;45115;52.002;4.686;2022-10-04T06:01:38;36.08;;;19.58;;
59336;SDS011;45115;52.002;4.686;2022-10-04T06:04:17;37.85;;;20.80;;
59336;SDS011;45115;52.002;4.686;2022-10-04T06:06:53;37.63;;;21.50;;
59336;SDS011;45115;52.002;4.686;2022-10-04T06:09:28;36.72;;;21.80;;
59336;SDS011;45115;52.002;4.686;2022-10-04T06:12:09;37.60;;;20.13;;
59336;SDS011;45115;52.002;4.686;2022-10-04T06:14:52;37.05;;;20.75;;
59336;SDS011;45115;52.002;4.686;2022-10-04T06:17:48;34.22;;;20.48;;
59336;SDS011;45115;52.002;4.686;2022-10-04T06:20:48;35.42;;;19.00;;
59336;SDS011;45115;52.002;4.686;2022-10-04T06:23:25;33.53;;;19.90;;
59336;SDS011;45115;52.002;4.686;2022-10-04T06:25:56;34.30;;;20.50;;
59336;SDS011;45115;52.002;4.686;2022-10-04T06:28:28;38.20;;;21.75;;
59336;SDS011;45115;52.002;4.686;2022-10-04T06:34:02;37.80;;;20.58;;
59336;SDS011;45115;52.002;4.686;2022-10-04T06:36:47;36.50;;;21.10;;
59336;SDS011;45115;52.002;4.686;2022-10-04T06:39:31;37.05;;;21.17;;
59336;SDS011;45115;52.002;4.686;2022-10-04T06:42:23;45.00;;;22.42;;
59336;SDS011;45115;52.002;4.686;2022-10-04T06:45:09;38.85;;;21.30;;
59336;SDS011;45115;52.002;4.686;2022-10-04T06:47:51;38.72;;;22.17;;
59336;SDS011;45115;52.002;4.686;2022-10-04T06:50:32;38.88;;;23.25;;
59336;SDS011;45115;52.002;4.686;2022-10-04T06:53:17;38.83;;;22.10;;
59336;SDS011;45115;52.002;4.686;2022-10-04T06:58:49;40.88;;;23.23;;
59336;SDS011;45115;52.002;4.686;2022-10-04T07:01:31;37.70;;;22.15;;
59336;SDS011;45115;52.002;4.686;2022-10-04T07:04:01;38.58;;;21.67;;
59336;SDS011;45115;52.002;4.686;2022-10-04T07:06:56;37.28;;;21.00;;
59336;SDS011;45115;52.002;4.686;2022-10-04T07:09:48;41.40;;;22.40;;
59336;SDS011;45115;52.002;4.686;2022-10-04T07:12:17;38.72;;;21.08;;
59336;SDS011;45115;52.002;4.686;2022-10-04T07:14:45;36.70;;;21.33;;
59336;SDS011;45115;52.002;4.686;2022-10-04T07:17:18;38.75;;;20.48;;
59336;SDS011;45115;52.002;4.686;2022-10-04T07:19:51;35.17;;;20.40;;
59336;SDS011;45115;52.002;4.686;2022-10-04T07:22:21;33.20;;;18.88;;
59336;SDS011;45115;52.002;4.686;2022-10-04T07:25:02;31.17;;;16.95;;
59336;SDS011;45115;52.002;4.686;2022-10-04T07:27:43;26.23;;;15.75;;
59336;SDS011;45115;52.002;4.686;2022-10-04T07:30:34;25.13;;;14.45;;
59336;SDS011;45115;52.002;4.686;2022-10-04T07:33:05;24.80;;;14.25;;
59336;SDS011;45115;52.002;4.686;2022-10-04T07:35:35;20.70;;;13.15;;
59336;SDS011;45115;52.002;4.686;2022-10-04T07:38:13;24.38;;;12.15;;
59336;SDS011;45115;52.002;4.686;2022-10-04T07:40:54;21.75;;;12.15;;
59336;SDS011;45115;52.002;4.686;2022-10-04T07:43:30;22.17;;;12.20;;
59336;SDS011;45115;52.002;4.686;2022-10-04T07:46:00;26.48;;;12.52;;
59336;SDS011;45115;52.002;4.686;2022-10-04T07:48:31;20.98;;;11.38;;
59336;SDS011;45115;52.002;4.686;2022-10-04T07:51:01;24.50;;;12.68;;
59336;SDS011;45115;52.002;4.686;2022-10-04T07:53:38;21.95;;;12.85;;
59336;SDS011;45115;52.002;4.686;2022-10-04T07:56:16;24.38;;;12.75;;
59336;SDS011;45115;52.002;4.686;2022-10-04T07:58:50;21.63;;;11.70;;
59336;SDS011;45115;52.002;4.686;2022-10-04T08:01:28;21.38;;;11.57;;
59336;SDS011;45115;52.002;4.686;2022-10-04T08:04:16;21.88;;;11.00;;
59336;SDS011;45115;52.002;4.686;2022-10-04T08:06:56;19.50;;;10.57;;
59336;SDS011;45115;52.002;4.686;2022-10-04T08:09:27;22.40;;;11.75;;
59336;SDS011;45115;52.002;4.686;2022-10-04T08:12:13;22.73;;;11.07;;
59336;SDS011;45115;52.002;4.686;2022-10-04T08:14:52;21.83;;;11.50;;
59336;SDS011;45115;52.002;4.686;2022-10-04T08:17:25;18.58;;;10.73;;
59336;SDS011;45115;52.002;4.686;2022-10-04T08:20:02;20.02;;;11.07;;
59336;SDS011;45115;52.002;4.686;2022-10-04T08:22:49;21.33;;;11.27;;
59336;SDS011;45115;52.002;4.686;2022-10-04T08:25:25;18.40;;;10.90;;
59336;SDS011;45115;52.002;4.686;2022-10-04T08:28:01;19.30;;;10.68;;
59336;SDS011;45115;52.002;4.686;2022-10-04T08:31:02;19.23;;;10.57;;
59336;SDS011;45115;52.002;4.686;2022-10-04T08:33:40;21.95;;;11.05;;
59336;SDS011;45115;52.002;4.686;2022-10-04T08:36:21;19.95;;;10.93;;
59336;SDS011;45115;52.002;4.686;2022-10-04T08:38:58;19.27;;;10.25;;
59336;SDS011;45115;52.002;4.686;2022-10-04T08:41:33;21.58;;;10.10;;
59336;SDS011;45115;52.002;4.686;2022-10-04T08:44:39;20.63;;;10.23;;
59336;SDS011;45115;52.002;4.686;2022-10-04T08:57:02;19.38;;;10.05;;
59336;SDS011;45115;52.002;4.686;2022-10-04T08:59:48;22.50;;;10.52;;
59336;SDS011;45115;52.002;4.686;2022-10-04T09:02:59;18.38;;;10.32;;
59336;SDS011;45115;52.002;4.686;2022-10-04T09:06:05;20.02;;;10.68;;
59336;SDS011;45115;52.002;4.686;2022-10-04T09:09:21;17.35;;;9.43;;
59336;SDS011;45115;52.002;4.686;2022-10-04T09:15:31;21.15;;;10.85;;
59336;SDS011;45115;52.002;4.686;2022-10-04T09:18:20;20.07;;;10.03;;
59336;SDS011;45115;52.002;4.686;2022-10-04T09:20:55;22.02;;;9.88;;
59336;SDS011;45115;52.002;4.686;2022-10-04T09:23:39;18.02;;;10.13;;
59336;SDS011;45115;52.002;4.686;2022-10-04T09:26:20;21.88;;;10.85;;
59336;SDS011;45115;52.002;4.686;2022-10-04T09:32:31;21.10;;;9.10;;
59336;SDS011;45115;52.002;4.686;2022-10-04T09:35:20;17.55;;;9.10;;
59336;SDS011;45115;52.002;4.686;2022-10-04T09:41:04;17.95;;;9.07;;
59336;SDS011;45115;52.002;4.686;2022-10-04T09:44:01;15.90;;;8.10;;
59336;SDS011;45115;52.002;4.686;2022-10-04T09:46:58;15.95;;;8.52;;
59336;SDS011;45115;52.002;4.686;2022-10-04T09:52:19;18.23;;;8.05;;
59336;SDS011;45115;52.002;4.686;2022-10-04T09:55:05;16.67;;;8.23;;
59336;SDS011;45115;52.002;4.686;2022-10-04T09:57:47;14.45;;;7.60;;
59336;SDS011;45115;52.002;4.686;2022-10-04T10:00:30;14.15;;;8.35;;
59336;SDS011;45115;52.002;4.686;2022-10-04T10:03:24;18.83;;;7.97;;
59336;SDS011;45115;52.002;4.686;2022-10-04T10:06:13;16.75;;;7.90;;
59336;SDS011;45115;52.002;4.686;2022-10-04T10:09:04;17.15;;;8.02;;
59336;SDS011;45115;52.002;4.686;2022-10-04T10:11:42;14.80;;;8.13;;
59336;SDS011;45115;52.002;4.686;2022-10-04T10:17:42;15.77;;;7.22;;
59336;SDS011;45115;52.002;4.686;2022-10-04T10:23:36;15.10;;;7.45;;
59336;SDS011;45115;52.002;4.686;2022-10-04T10:26:25;14.45;;;7.40;;
59336;SDS011;45115;52.002;4.686;2022-10-04T10:29:09;15.00;;;7.03;;
59336;SDS011;45115;52.002;4.686;2022-10-04T10:32:17;16.42;;;7.63;;
59336;SDS011;45115;52.002;4.686;2022-10-04T10:38:05;12.07;;;6.70;;
59336;SDS011;45115;52.002;4.686;2022-10-04T10:40:56;13.93;;;6.68;;
59336;SDS011;45115;52.002;4.686;2022-10-04T10:43:42;11.35;;;6.75;;
59336;SDS011;45115;52.002;4.686;2022-10-04T10:46:37;15.18;;;7.32;;
59336;SDS011;45115;52.002;4.686;2022-10-04T10:49:19;18.25;;;7.45;;
59336;SDS011;45115;52.002;4.686;2022-10-04T10:52:02;14.68;;;8.05;;
59336;SDS011;45115;52.002;4.686;2022-10-04T10:55:05;15.00;;;7.32;;
59336;SDS011;45115;52.002;4.686;2022-10-04T10:58:11;17.80;;;6.95;;
59336;SDS011;45115;52.002;4.686;2022-10-04T11:00:59;13.20;;;6.30;;
59336;SDS011;45115;52.002;4.686;2022-10-04T11:03:43;13.02;;;6.93;;
59336;SDS011;45115;52.002;4.686;2022-10-04T11:09:56;11.90;;;6.18;;
59336;SDS011;45115;52.002;4.686;2022-10-04T11:15:49;10.75;;;4.75;;
59336;SDS011;45115;52.002;4.686;2022-10-04T11:19:04;10.20;;;5.25;;
59336;SDS011;45115;52.002;4.686;2022-10-04T11:25:02;13.13;;;5.60;;
59336;SDS011;45115;52.002;4.686;2022-10-04T11:27:55;11.85;;;6.25;;
59336;SDS011;45115;52.002;4.686;2022-10-04T11:30:33;11.20;;;5.53;;
59336;SDS011;45115;52.002;4.686;2022-10-04T11:33:22;12.30;;;6.43;;
59336;SDS011;45115;52.002;4.686;2022-10-04T11:36:04;13.38;;;5.82;;
59336;SDS011;45115;52.002;4.686;2022-10-04T11:41:50;9.35;;;5.15;;
59336;SDS011;45115;52.002;4.686;2022-10-04T11:44:37;11.63;;;5.60;;
59336;SDS011;45115;52.002;4.686;2022-10-04T11:47:27;12.00;;;5.25;;
59336;SDS011;45115;52.002;4.686;2022-10-04T11:50:18;13.00;;;6.20;;
59336;SDS011;45115;52.002;4.686;2022-10-04T11:53:00;10.90;;;5.75;;
59336;SDS011;45115;52.002;4.686;2022-10-04T11:55:57;12.45;;;6.25;;
59336;SDS011;45115;52.002;4.686;2022-10-04T11:58:43;12.00;;;5.68;;
59336;SDS011;45115;52.002;4.686;2022-10-04T12:01:35;12.15;;;5.47;;
59336;SDS011;45115;52.002;4.686;2022-10-04T12:07:32;12.75;;;6.30;;
59336;SDS011;45115;52.002;4.686;2022-10-04T12:16:17;14.70;;;6.20;;
59336;SDS011;45115;52.002;4.686;2022-10-04T12:22:13;9.63;;;5.10;;
59336;SDS011;45115;52.002;4.686;2022-10-04T12:31:12;10.77;;;5.63;;
59336;SDS011;45115;52.002;4.686;2022-10-04T12:33:47;13.20;;;5.82;;
59336;SDS011;45115;52.002;4.686;2022-10-04T12:36:24;14.00;;;6.38;;
59336;SDS011;45115;52.002;4.686;2022-10-04T12:39:11;11.45;;;6.05;;
59336;SDS011;45115;52.002;4.686;2022-10-04T12:41:50;11.77;;;5.83;;
59336;SDS011;45115;52.002;4.686;2022-10-04T12:44:27;10.93;;;5.32;;
59336;SDS011;45115;52.002;4.686;2022-10-04T12:47:31;11.73;;;5.20;;
59336;SDS011;45115;52.002;4.686;2022-10-04T12:50:11;12.25;;;5.97;;
59336;SDS011;45115;52.002;4.686;2022-10-04T12:58:10;13.50;;;5.75;;
59336;SDS011;45115;52.002;4.686;2022-10-04T13:00:48;11.27;;;5.75;;
59336;SDS011;45115;52.002;4.686;2022-10-04T13:03:29;9.70;;;5.47;;
59336;SDS011;45115;52.002;4.686;2022-10-04T13:06:06;9.93;;;5.25;;
59336;SDS011;45115;52.002;4.686;2022-10-04T13:08:43;9.48;;;6.00;;
59336;SDS011;45115;52.002;4.686;2022-10-04T13:11:22;12.95;;;6.07;;
59336;SDS011;45115;52.002;4.686;2022-10-04T13:17:09;12.57;;;5.78;;
59336;SDS011;45115;52.002;4.686;2022-10-04T13:19:44;10.85;;;5.82;;
59336;SDS011;45115;52.002;4.686;2022-10-04T13:22:20;10.02;;;5.20;;
59336;SDS011;45115;52.002;4.686;2022-10-04T13:24:57;12.15;;;5.50;;
59336;SDS011;45115;52.002;4.686;2022-10-04T13:27:38;9.45;;;5.28;;
59336;SDS011;45115;52.002;4.686;2022-10-04T13:30:15;11.52;;;5.75;;
59336;SDS011;45115;52.002;4.686;2022-10-04T13:32:51;11.18;;;5.13;;
59336;SDS011;45115;52.002;4.686;2022-10-04T13:35:26;11.52;;;5.63;;
59336;SDS011;45115;52.002;4.686;2022-10-04T13:38:01;12.90;;;5.60;;
59336;SDS011;45115;52.002;4.686;2022-10-04T13:40:46;11.85;;;5.25;;
59336;SDS011;45115;52.002;4.686;2022-10-04T13:43:31;13.05;;;5.72;;
59336;SDS011;45115;52.002;4.686;2022-10-04T13:46:11;12.70;;;6.43;;
59336;SDS011;45115;52.002;4.686;2022-10-04T13:48:51;10.07;;;5.32;;
59336;SDS011;45115;52.002;4.686;2022-10-04T13:51:30;10.83;;;5.87;;
59336;SDS011;45115;52.002;4.686;2022-10-04T13:54:10;11.88;;;5.70;;
59336;SDS011;45115;52.002;4.686;2022-10-04T13:57:08;13.35;;;5.88;;
59336;SDS011;45115;52.002;4.686;2022-10-04T13:59:45;10.70;;;5.20;;
59336;SDS011;45115;52.002;4.686;2022-10-04T14:05:25;11.68;;;5.97;;
59336;SDS011;45115;52.002;4.686;2022-10-04T14:14:20;9.43;;;5.53;;
59336;SDS011;45115;52.002;4.686;2022-10-04T14:17:38;12.80;;;5.60;;
59336;SDS011;45115;52.002;4.686;2022-10-04T14:20:31;12.32;;;5.53;;
59336;SDS011;45115;52.002;4.686;2022-10-04T14:35:22;9.63;;;5.20;;
59336;SDS011;45115;52.002;4.686;2022-10-04T14:38:16;10.35;;;5.35;;
59336;SDS011;45115;52.002;4.686;2022-10-04T14:46:56;7.93;;;4.70;;
59336;SDS011;45115;52.002;4.686;2022-10-04T14:49:37;11.27;;;5.28;;
59336;SDS011;45115;52.002;4.686;2022-10-04T14:52:18;8.55;;;4.82;;
59336;SDS011;45115;52.002;4.686;2022-10-04T14:55:06;10.43;;;5.57;;
59336;SDS011;45115;52.002;4.686;2022-10-04T14:57:44;9.15;;;5.15;;
59336;SDS011;45115;52.002;4.686;2022-10-04T15:00:20;9.52;;;5.10;;
59336;SDS011;45115;52.002;4.686;2022-10-04T15:02:55;10.20;;;5.22;;
59336;SDS011;45115;52.002;4.686;2022-10-04T15:06:04;10.70;;;5.18;;
59336;SDS011;45115;52.002;4.686;2022-10-04T15:08:41;11.10;;;6.18;;
59336;SDS011;45115;52.002;4.686;2022-10-04T15:11:41;12.57;;;5.75;;
59336;SDS011;45115;52.002;4.686;2022-10-04T15:14:35;10.02;;;5.20;;
59336;SDS011;45115;52.002;4.686;2022-10-04T15:17:05;12.98;;;6.45;;
59336;SDS011;45115;52.002;4.686;2022-10-04T15:22:29;11.95;;;6.07;;
59336;SDS011;45115;52.002;4.686;2022-10-04T15:25:34;10.77;;;5.78;;
59336;SDS011;45115;52.002;4.686;2022-10-04T15:28:11;13.68;;;6.30;;
59336;SDS011;45115;52.002;4.686;2022-10-04T15:31:11;10.45;;;5.80;;
59336;SDS011;45115;52.002;4.686;2022-10-04T15:33:45;13.88;;;5.88;;
59336;SDS011;45115;52.002;4.686;2022-10-04T15:36:27;9.65;;;5.82;;
59336;SDS011;45115;52.002;4.686;2022-10-04T15:39:22;11.85;;;5.57;;
59336;SDS011;45115;52.002;4.686;2022-10-04T15:42:01;11.90;;;5.97;;
59336;SDS011;45115;52.002;4.686;2022-10-04T15:47:44;13.98;;;6.45;;
59336;SDS011;45115;52.002;4.686;2022-10-04T15:50:25;11.68;;;5.72;;
59336;SDS011;45115;52.002;4.686;2022-10-04T15:53:15;12.52;;;6.20;;
59336;SDS011;45115;52.002;4.686;2022-10-04T15:56:05;9.52;;;5.72;;
59336;SDS011;45115;52.002;4.686;2022-10-04T15:58:51;12.10;;;6.25;;
59336;SDS011;45115;52.002;4.686;2022-10-04T16:01:47;11.25;;;6.13;;
59336;SDS011;45115;52.002;4.686;2022-10-04T16:04:30;11.38;;;5.82;;
59336;SDS011;45115;52.002;4.686;2022-10-04T16:07:21;11.43;;;5.97;;
59336;SDS011;45115;52.002;4.686;2022-10-04T16:10:06;9.95;;;5.68;;
59336;SDS011;45115;52.002;4.686;2022-10-04T16:12:54;9.43;;;5.05;;
59336;SDS011;45115;52.002;4.686;2022-10-04T16:15:33;9.48;;;5.03;;
59336;SDS011;45115;52.002;4.686;2022-10-04T16:18:15;12.00;;;5.95;;
59336;SDS011;45115;52.002;4.686;2022-10-04T16:21:02;14.68;;;5.10;;
59336;SDS011;45115;52.002;4.686;2022-10-04T16:23:37;10.93;;;4.88;;
59336;SDS011;45115;52.002;4.686;2022-10-04T16:26:08;11.88;;;5.28;;
59336;SDS011;45115;52.002;4.686;2022-10-04T16:28:48;9.18;;;4.70;;
59336;SDS011;45115;52.002;4.686;2022-10-04T16:31:45;13.50;;;5.70;;
59336;SDS011;45115;52.002;4.686;2022-10-04T16:34:21;9.15;;;5.15;;
59336;SDS011;45115;52.002;4.686;2022-10-04T16:37:11;9.50;;;5.65;;
59336;SDS011;45115;52.002;4.686;2022-10-04T16:39:48;9.57;;;5.13;;
59336;SDS011;45115;52.002;4.686;2022-10-04T16:42:30;8.68;;;4.60;;
59336;SDS011;45115;52.002;4.686;2022-10-04T16:47:57;12.68;;;5.93;;
59336;SDS011;45115;52.002;4.686;2022-10-04T16:50:53;8.35;;;4.78;;
59336;SDS011;45115;52.002;4.686;2022-10-04T16:53:35;12.02;;;5.00;;
59336;SDS011;45115;52.002;4.686;2022-10-04T16:56:13;10.05;;;4.80;;
59336;SDS011;45115;52.002;4.686;2022-10-04T16:58:51;10.40;;;4.78;;
59336;SDS011;45115;52.002;4.686;2022-10-04T17:01:29;10.70;;;5.25;;
59336;SDS011;45115;52.002;4.686;2022-10-04T17:04:08;12.25;;;5.57;;
59336;SDS011;45115;52.002;4.686;2022-10-04T17:06:52;9.00;;;5.32;;
59336;SDS011;45115;52.002;4.686;2022-10-04T17:09:23;11.43;;;5.15;;
59336;SDS011;45115;52.002;4.686;2022-10-04T17:12:06;9.45;;;4.95;;
59336;SDS011;45115;52.002;4.686;2022-10-04T17:14:46;11.40;;;5.55;;
59336;SDS011;45115;52.002;4.686;2022-10-04T17:17:27;13.88;;;5.80;;
59336;SDS011;45115;52.002;4.686;2022-10-04T17:20:10;9.90;;;5.40;;
59336;SDS011;45115;52.002;4.686;2022-10-04T17:22:52;9.73;;;5.18;;
59336;SDS011;45115;52.002;4.686;2022-10-04T17:25:35;9.10;;;5.05;;
59336;SDS011;45115;52.002;4.686;2022-10-04T17:28:12;11.38;;;6.05;;
59336;SDS011;45115;52.002;4.686;2022-10-04T17:30:52;9.20;;;4.85;;
59336;SDS011;45115;52.002;4.686;2022-10-04T17:33:33;14.38;;;6.13;;
59336;SDS011;45115;52.002;4.686;2022-10-04T17:36:13;9.23;;;5.45;;
59336;SDS011;45115;52.002;4.686;2022-10-04T17:38:52;11.13;;;5.47;;
59336;SDS011;45115;52.002;4.686;2022-10-04T17:41:31;13.45;;;6.63;;
59336;SDS011;45115;52.002;4.686;2022-10-04T17:47:03;9.57;;;5.75;;
59336;SDS011;45115;52.002;4.686;2022-10-04T17:49:39;9.20;;;5.30;;
59336;SDS011;45115;52.002;4.686;2022-10-04T17:52:31;11.10;;;5.40;;